createdAt,value
2023-09-19T00:02:15.320Z,2.17
2023-09-19T00:04:50.722Z,1.70
2023-09-19T00:07:18.680Z,1.85
2023-09-19T00:09:53.933Z,2.42
2023-09-19T00:12:29.774Z,2.05
2023-09-19T00:15:11.159Z,2.30
2023-09-19T00:17:41.997Z,2.13
2023-09-19T00:20:35.190Z,2.10
2023-09-19T00:23:10.488Z,2.40
2023-09-19T00:25:48.629Z,2.28
2023-09-19T00:28:18.735Z,2.00
2023-09-19T00:30:59.725Z,2.10
2023-09-19T00:33:33.617Z,1.83
2023-09-19T00:36:12.535Z,2.60
2023-09-19T00:38:40.253Z,2.53
2023-09-19T00:44:01.841Z,1.92
2023-09-19T00:46:29.997Z,2.60
2023-09-19T00:51:49.302Z,2.63
2023-09-19T00:54:26.613Z,2.30
2023-09-19T00:56:56.029Z,2.50
2023-09-19T01:02:14.728Z,1.90
2023-09-19T01:04:51.682Z,1.75
2023-09-19T01:07:22.092Z,1.85
2023-09-19T01:09:56.553Z,1.90
2023-09-19T01:13:05.121Z,2.28
2023-09-19T01:15:49.112Z,2.50
2023-09-19T01:18:56.534Z,2.30
2023-09-19T01:21:58.668Z,1.85
2023-09-19T01:24:53.577Z,2.00
2023-09-19T01:28:05.644Z,2.00
2023-09-19T01:30:40.421Z,2.10
2023-09-19T01:33:18.675Z,2.17
2023-09-19T01:35:53.652Z,1.95
2023-09-19T01:38:28.610Z,1.73
2023-09-19T01:41:22.566Z,1.92
2023-09-19T01:43:51.964Z,1.90
2023-09-19T01:46:37.705Z,2.13
2023-09-19T01:49:45.173Z,2.20
2023-09-19T01:52:28.633Z,2.47
2023-09-19T01:55:22.930Z,2.13
2023-09-19T01:58:07.641Z,2.40
2023-09-19T02:00:48.630Z,2.38
2023-09-19T02:03:19.477Z,2.63
2023-09-19T02:06:01.581Z,2.53
2023-09-19T02:08:29.415Z,2.55
2023-09-19T02:11:03.528Z,2.65
2023-09-19T02:13:38.308Z,2.88
2023-09-19T02:16:12.932Z,2.78
2023-09-19T02:18:45.162Z,2.72
2023-09-19T02:21:20.705Z,2.70
2023-09-19T02:23:48.796Z,2.60
2023-09-19T02:26:26.552Z,2.50
2023-09-19T02:28:54.543Z,2.70
2023-09-19T02:31:28.695Z,3.28
2023-09-19T02:33:56.791Z,3.35
2023-09-19T02:36:31.651Z,2.85
2023-09-19T02:39:02.578Z,3.13
2023-09-19T02:41:30.898Z,2.88
2023-09-19T02:44:06.010Z,3.10
2023-09-19T02:46:39.715Z,3.00
2023-09-19T02:49:14.620Z,2.72
2023-09-19T02:51:42.245Z,2.58
2023-09-19T02:54:16.656Z,3.30
2023-09-19T02:56:46.745Z,2.55
2023-09-19T02:59:23.684Z,2.90
2023-09-19T03:01:51.450Z,4.03
2023-09-19T03:04:27.745Z,3.63
2023-09-19T03:07:00.131Z,3.42
2023-09-19T03:09:33.798Z,3.35
2023-09-19T03:12:08.263Z,3.40
2023-09-19T03:14:43.701Z,3.22
2023-09-19T03:17:11.454Z,3.10
2023-09-19T03:19:48.831Z,3.28
2023-09-19T03:22:19.631Z,3.03
2023-09-19T03:24:56.649Z,3.00
2023-09-19T03:27:30.664Z,3.17
2023-09-19T03:30:05.274Z,3.28
2023-09-19T03:32:41.712Z,3.28
2023-09-19T03:35:18.840Z,3.25
2023-09-19T03:37:46.588Z,3.03
2023-09-19T03:40:25.861Z,3.05
2023-09-19T03:43:04.655Z,2.55
2023-09-19T03:45:41.752Z,3.05
2023-09-19T03:51:12.707Z,2.95
2023-09-19T03:53:46.719Z,2.70
2023-09-19T03:56:16.630Z,2.10
2023-09-19T03:58:50.847Z,2.90
2023-09-19T04:01:22.853Z,2.90
2023-09-19T04:03:58.754Z,2.88
2023-09-19T04:06:32.712Z,3.67
2023-09-19T04:09:06.696Z,2.63
2023-09-19T04:11:54.221Z,3.25
2023-09-19T04:17:12.883Z,2.83
2023-09-19T04:22:28.295Z,3.35
2023-09-19T04:27:43.963Z,2.63
2023-09-19T04:33:25.120Z,2.55
2023-09-19T04:36:33.711Z,2.60
2023-09-19T04:38:53.307Z,2.40
2023-09-19T04:41:29.766Z,3.33
2023-09-19T04:43:57.534Z,2.97
2023-09-19T04:46:33.860Z,2.88
2023-09-19T04:51:54.702Z,2.78
2023-09-19T04:54:23.456Z,3.20
2023-09-19T04:56:58.597Z,3.30
2023-09-19T04:59:30.318Z,3.28
2023-09-19T05:04:49.817Z,2.97
2023-09-19T05:07:24.720Z,2.53
2023-09-19T05:09:58.817Z,3.10
2023-09-19T05:12:36.302Z,2.63
2023-09-19T05:15:21.173Z,3.20
2023-09-19T05:17:59.314Z,2.60
2023-09-19T05:23:29.927Z,3.00
2023-09-19T05:26:06.645Z,2.25
2023-09-19T05:28:35.828Z,2.60
2023-09-19T05:31:12.849Z,2.17
2023-09-19T05:33:40.296Z,2.60
2023-09-19T05:36:14.698Z,2.35
2023-09-19T05:38:46.181Z,2.58
2023-09-19T05:41:21.874Z,2.38
2023-09-19T05:43:51.969Z,2.47
2023-09-19T05:46:25.818Z,2.55
2023-09-19T05:48:53.554Z,2.40
2023-09-19T05:51:30.770Z,2.40
2023-09-19T05:53:58.891Z,2.65
2023-09-19T05:56:32.663Z,2.65
2023-09-19T05:59:02.803Z,2.53
2023-09-19T06:01:36.865Z,2.50
2023-09-19T06:04:14.770Z,2.15
2023-09-19T06:06:51.754Z,2.22
2023-09-19T06:09:25.811Z,2.70
2023-09-19T06:12:04.828Z,2.63
2023-09-19T06:14:45.712Z,2.92
2023-09-19T06:17:15.753Z,2.80
2023-09-19T06:19:54.857Z,2.70
2023-09-19T06:22:23.350Z,3.20
2023-09-19T06:24:59.869Z,2.35
2023-09-19T06:27:27.385Z,2.22
2023-09-19T06:30:02.213Z,2.10
2023-09-19T06:32:30.381Z,2.40
2023-09-19T06:35:01.334Z,2.28
2023-09-19T06:37:44.686Z,2.72
2023-09-19T06:40:25.925Z,1.88
2023-09-19T06:43:03.862Z,2.70
2023-09-19T06:45:40.950Z,2.40
2023-09-19T06:48:14.655Z,3.00
2023-09-19T06:50:55.860Z,2.15
2023-09-19T06:53:25.303Z,2.33
2023-09-19T06:56:00.092Z,2.40
2023-09-19T06:58:27.398Z,2.45
2023-09-19T07:01:04.929Z,2.40
2023-09-19T07:03:35.024Z,2.65
2023-09-19T07:06:04.782Z,2.97
2023-09-19T07:08:41.767Z,2.70
2023-09-19T07:11:17.170Z,2.88
2023-09-19T07:13:59.740Z,2.60
2023-09-19T07:16:32.160Z,3.25
2023-09-19T07:19:08.727Z,2.63
2023-09-19T07:21:40.257Z,3.05
2023-09-19T07:24:23.387Z,2.78
2023-09-19T07:26:54.581Z,2.58
2023-09-19T07:29:28.769Z,3.00
2023-09-19T07:31:56.179Z,2.00
2023-09-19T07:34:33.180Z,2.53
2023-09-19T07:37:04.294Z,2.45
2023-09-19T07:39:32.935Z,2.65
2023-09-19T07:42:06.898Z,2.92
2023-09-19T07:44:34.971Z,2.67
2023-09-19T07:47:13.220Z,2.20
2023-09-19T07:49:50.872Z,2.38
2023-09-19T07:52:26.079Z,2.92
2023-09-19T07:55:03.008Z,2.70
2023-09-19T07:57:30.654Z,2.33
2023-09-19T07:59:58.651Z,2.50
2023-09-19T08:02:32.887Z,2.42
2023-09-19T08:05:04.509Z,2.70
2023-09-19T08:07:41.105Z,2.55
2023-09-19T08:10:20.802Z,2.85
2023-09-19T08:13:06.829Z,2.70
2023-09-19T08:15:48.165Z,2.70
2023-09-19T08:18:24.168Z,2.88
2023-09-19T08:20:53.610Z,2.10
2023-09-19T08:23:27.897Z,2.63
2023-09-19T08:25:59.865Z,2.83
2023-09-19T08:28:34.023Z,3.15
2023-09-19T08:31:19.224Z,3.05
2023-09-19T08:33:58.118Z,2.40
2023-09-19T08:36:28.717Z,2.42
2023-09-19T08:39:07.862Z,2.30
2023-09-19T08:41:43.172Z,2.58
2023-09-19T08:44:21.328Z,2.35
2023-09-19T08:46:57.868Z,2.63
2023-09-19T08:49:47.841Z,3.05
2023-09-19T08:52:31.854Z,2.50
2023-09-19T08:55:12.929Z,2.28
2023-09-19T08:57:50.659Z,2.25
2023-09-19T09:00:29.399Z,2.72
2023-09-19T09:03:05.334Z,2.80
2023-09-19T09:05:38.765Z,2.53
2023-09-19T09:08:18.939Z,2.53
2023-09-19T09:10:52.994Z,3.08
2023-09-19T09:13:29.296Z,2.63
2023-09-19T09:16:13.191Z,2.63
2023-09-19T09:18:48.084Z,2.60
2023-09-19T09:21:20.796Z,3.30
2023-09-19T09:23:55.178Z,2.97
2023-09-19T09:26:40.785Z,3.10
2023-09-19T09:29:21.526Z,2.15
2023-09-19T09:31:52.155Z,3.15
2023-09-19T09:34:30.009Z,2.67
2023-09-19T09:36:57.910Z,2.58
2023-09-19T09:39:40.875Z,3.00
2023-09-19T09:42:11.734Z,2.97
2023-09-19T09:44:51.857Z,3.15
2023-09-19T09:47:57.277Z,2.78
2023-09-19T09:50:36.991Z,2.90
2023-09-19T09:53:08.974Z,2.63
2023-09-19T09:56:07.991Z,3.20
2023-09-19T09:58:42.036Z,3.38
2023-09-19T10:01:25.638Z,3.15
2023-09-19T10:04:00.322Z,3.33
2023-09-19T10:06:35.032Z,3.22
2023-09-19T10:09:21.927Z,2.53
2023-09-19T10:12:09.960Z,2.80
2023-09-19T10:14:48.852Z,2.83
2023-09-19T10:17:29.823Z,2.05
2023-09-19T10:20:02.596Z,2.70
2023-09-19T10:22:40.058Z,3.17
2023-09-19T10:25:10.492Z,2.53
2023-09-19T10:27:48.378Z,2.55
2023-09-19T10:30:19.715Z,2.45
2023-09-19T10:33:02.095Z,2.95
2023-09-19T10:35:46.308Z,3.40
2023-09-19T10:38:30.250Z,3.45
2023-09-19T10:41:02.713Z,2.03
2023-09-19T10:43:46.223Z,2.75
2023-09-19T10:46:14.418Z,2.00
2023-09-19T10:48:51.979Z,2.92
2023-09-19T10:51:31.897Z,3.03
2023-09-19T10:54:26.237Z,2.45
2023-09-19T10:56:54.917Z,2.33
2023-09-19T10:59:29.895Z,2.58
2023-09-19T11:02:03.020Z,3.30
2023-09-19T11:04:47.110Z,2.15
2023-09-19T11:07:17.371Z,2.03
2023-09-19T11:09:56.286Z,2.67
2023-09-19T11:12:42.433Z,1.95
2023-09-19T11:16:17.165Z,2.60
2023-09-19T11:18:50.323Z,2.60
2023-09-19T11:21:51.066Z,2.47
2023-09-19T11:24:32.982Z,2.47
2023-09-19T11:27:26.006Z,2.40
2023-09-19T11:30:29.014Z,2.50
2023-09-19T11:33:44.983Z,2.22
2023-09-19T11:36:29.950Z,2.40
2023-09-19T11:38:57.294Z,2.50
2023-09-19T11:41:33.888Z,2.55
2023-09-19T11:44:05.903Z,2.65
2023-09-19T11:46:46.827Z,2.58
2023-09-19T11:49:40.697Z,2.88
2023-09-19T11:52:32.045Z,2.40
2023-09-19T11:55:06.326Z,2.55
2023-09-19T11:57:43.970Z,2.47
2023-09-19T12:00:19.960Z,2.53
2023-09-19T12:03:04.160Z,2.70
2023-09-19T12:05:34.772Z,2.17
2023-09-19T12:08:09.115Z,2.15
2023-09-19T12:11:12.114Z,2.50
2023-09-19T12:13:58.153Z,2.60
2023-09-19T12:16:26.159Z,2.85
2023-09-19T12:19:02.219Z,2.47
2023-09-19T12:21:38.165Z,2.05
2023-09-19T12:24:13.193Z,2.55
2023-09-19T12:26:53.577Z,2.63
2023-09-19T12:29:29.033Z,2.25
2023-09-19T12:32:08.260Z,2.20
2023-09-19T12:34:44.131Z,2.25
2023-09-19T12:37:29.416Z,2.20
2023-09-19T12:40:31.138Z,2.17
2023-09-19T12:43:08.647Z,2.05
2023-09-19T12:45:47.882Z,2.30
2023-09-19T12:48:33.865Z,1.80
2023-09-19T12:51:18.002Z,2.25
2023-09-19T12:53:47.098Z,2.03
2023-09-19T12:56:31.123Z,2.00
2023-09-19T12:59:11.120Z,2.17
2023-09-19T13:01:54.138Z,1.92
2023-09-19T13:04:31.439Z,1.80
2023-09-19T13:07:09.222Z,2.08
2023-09-19T13:09:37.188Z,2.53
2023-09-19T13:12:12.142Z,2.20
2023-09-19T13:14:55.143Z,2.00
2023-09-19T13:17:31.090Z,1.67
2023-09-19T13:20:07.454Z,1.67
2023-09-19T13:23:02.146Z,1.58
2023-09-19T13:25:32.142Z,2.28
2023-09-19T13:28:07.318Z,2.30
2023-09-19T13:30:54.401Z,1.92
2023-09-19T13:33:32.161Z,2.30
2023-09-19T13:36:18.047Z,2.00
2023-09-19T13:38:48.223Z,2.00
2023-09-19T13:41:27.891Z,2.20
2023-09-19T13:43:57.372Z,2.03
2023-09-19T13:46:34.307Z,1.92
2023-09-19T13:49:11.321Z,1.90
2023-09-19T13:51:53.821Z,2.10
2023-09-19T13:54:22.380Z,2.35
2023-09-19T13:57:00.212Z,1.90
2023-09-19T13:59:37.386Z,1.70
2023-09-19T14:02:05.940Z,1.70
2023-09-19T14:04:42.363Z,1.67
2023-09-19T14:07:20.321Z,1.95
2023-09-19T14:09:48.595Z,1.65
2023-09-19T14:12:42.261Z,1.65
2023-09-19T14:15:25.635Z,1.65
2023-09-19T14:18:04.421Z,1.73
2023-09-19T14:20:41.349Z,1.80
2023-09-19T14:23:11.619Z,2.00
2023-09-19T14:25:49.329Z,1.60
2023-09-19T14:28:23.367Z,1.80
2023-09-19T14:30:51.341Z,1.77
2023-09-19T14:33:28.308Z,1.50
2023-09-19T14:35:56.483Z,1.50
2023-09-19T14:38:34.615Z,1.35
2023-09-19T14:41:08.661Z,2.30
2023-09-19T14:43:43.371Z,1.63
2023-09-19T14:46:20.512Z,1.25
2023-09-19T14:48:57.720Z,1.30
2023-09-19T14:51:25.372Z,1.42
2023-09-19T14:54:00.229Z,1.58
2023-09-19T14:56:34.338Z,1.65
2023-09-19T14:59:02.092Z,1.50
2023-09-19T15:01:37.415Z,1.50
2023-09-19T15:04:12.312Z,1.48
2023-09-19T15:06:49.254Z,1.95
2023-09-19T15:09:23.549Z,1.70
2023-09-19T15:11:57.247Z,1.48
2023-09-19T15:14:38.624Z,1.50
2023-09-19T15:17:13.270Z,1.67
2023-09-19T15:19:44.341Z,1.30
2023-09-19T15:22:19.246Z,1.80
2023-09-19T15:24:46.856Z,1.05
2023-09-19T15:27:21.508Z,1.40
2023-09-19T15:29:49.318Z,1.65
2023-09-19T15:32:23.358Z,1.58
2023-09-19T15:34:53.949Z,1.25
2023-09-19T15:37:28.400Z,1.52
2023-09-19T15:39:56.400Z,1.10
2023-09-19T15:42:30.247Z,1.42
2023-09-19T15:44:57.718Z,1.23
2023-09-19T15:47:32.326Z,1.48
2023-09-19T15:50:01.795Z,1.40
2023-09-19T15:52:36.314Z,1.38
2023-09-19T15:55:08.877Z,1.70
2023-09-19T15:57:46.356Z,1.55
2023-09-19T16:00:25.342Z,1.30
2023-09-19T16:02:59.331Z,1.65
2023-09-19T16:05:43.651Z,1.50
2023-09-19T16:08:25.288Z,1.55
2023-09-19T16:10:56.081Z,1.50
2023-09-19T16:13:34.057Z,1.33
2023-09-19T16:16:11.367Z,1.30
2023-09-19T16:18:40.000Z,1.48
2023-09-19T16:21:19.300Z,1.88
2023-09-19T16:23:48.140Z,1.30
2023-09-19T16:26:22.320Z,1.40
2023-09-19T16:29:12.274Z,1.50
2023-09-19T16:31:47.773Z,1.10
2023-09-19T16:34:22.475Z,1.48
2023-09-19T16:36:50.651Z,1.23
2023-09-19T16:39:18.592Z,1.10
2023-09-19T16:41:53.489Z,1.30
2023-09-19T16:44:29.556Z,1.52
2023-09-19T16:47:04.561Z,1.40
2023-09-19T16:49:35.394Z,1.30
2023-09-19T16:52:05.765Z,1.17
2023-09-19T16:54:46.373Z,1.17
2023-09-19T16:57:17.138Z,1.27
2023-09-19T16:59:57.463Z,1.48
2023-09-19T17:02:36.705Z,1.70
2023-09-19T17:05:11.779Z,1.30
2023-09-19T17:07:47.327Z,1.10
2023-09-19T17:10:16.690Z,1.48
2023-09-19T17:12:51.199Z,1.45
2023-09-19T17:15:36.142Z,1.30
2023-09-19T17:18:10.437Z,1.25
2023-09-19T17:20:49.302Z,1.27
2023-09-19T17:23:19.979Z,1.60
2023-09-19T17:25:57.413Z,1.20
2023-09-19T17:28:25.644Z,1.52
2023-09-19T17:31:02.468Z,1.50
2023-09-19T17:33:37.481Z,1.27
2023-09-19T17:36:16.653Z,1.50
2023-09-19T17:38:53.516Z,1.27
2023-09-19T17:41:24.737Z,1.45
2023-09-19T17:44:08.791Z,1.65
2023-09-19T17:46:37.957Z,1.83
2023-09-19T17:49:12.396Z,2.25
2023-09-19T17:51:49.346Z,1.27
2023-09-19T17:54:17.386Z,1.40
2023-09-19T17:56:52.510Z,1.42
2023-09-19T17:59:21.005Z,1.35
2023-09-19T18:01:56.496Z,1.40
2023-09-19T18:04:31.384Z,1.30
2023-09-19T18:07:08.398Z,1.60
2023-09-19T18:09:39.248Z,1.45
2023-09-19T18:12:20.688Z,1.60
2023-09-19T18:14:54.831Z,1.50
2023-09-19T18:17:29.778Z,1.50
2023-09-19T18:19:59.091Z,1.83
2023-09-19T18:22:35.555Z,1.60
2023-09-19T18:25:08.755Z,1.75
2023-09-19T18:27:47.493Z,1.58
2023-09-19T18:30:19.305Z,1.35
2023-09-19T18:32:47.206Z,1.55
2023-09-19T18:35:24.417Z,1.80
2023-09-19T18:38:03.436Z,1.73
2023-09-19T18:40:38.772Z,1.60
2023-09-19T18:43:13.545Z,1.80
2023-09-19T18:45:55.986Z,1.70
2023-09-19T18:48:30.435Z,1.75
2023-09-19T18:51:11.546Z,1.70
2023-09-19T18:53:41.748Z,1.65
2023-09-19T18:56:23.606Z,1.35
2023-09-19T18:58:58.543Z,1.85
2023-09-19T19:01:41.059Z,1.42
2023-09-19T19:04:17.543Z,1.60
2023-09-19T19:06:48.644Z,1.98
2023-09-19T19:09:23.590Z,1.70
2023-09-19T19:11:58.657Z,1.98
2023-09-19T19:14:40.421Z,1.98
2023-09-19T19:17:08.435Z,2.00
2023-09-19T19:19:42.477Z,1.77
2023-09-19T19:22:10.385Z,1.90
2023-09-19T19:24:50.458Z,1.50
2023-09-19T19:27:24.553Z,1.60
2023-09-19T19:29:52.512Z,2.00
2023-09-19T19:32:28.927Z,2.28
2023-09-19T19:34:57.116Z,1.77
2023-09-19T19:37:31.590Z,1.70
2023-09-19T19:40:01.311Z,2.13
2023-09-19T19:42:36.666Z,2.20
2023-09-19T19:45:05.032Z,2.10
2023-09-19T19:47:39.533Z,1.67
2023-09-19T19:50:09.428Z,2.30
2023-09-19T19:52:43.960Z,1.67
2023-09-19T19:55:20.777Z,2.22
2023-09-19T19:58:01.639Z,1.85
2023-09-19T20:00:42.098Z,1.98
2023-09-19T20:03:17.084Z,2.00
2023-09-19T20:05:45.700Z,2.17
2023-09-19T20:08:24.348Z,2.00
2023-09-19T20:10:52.639Z,2.17
2023-09-19T20:13:39.877Z,2.00
2023-09-19T20:16:23.521Z,1.90
2023-09-19T20:19:01.529Z,2.30
2023-09-19T20:21:32.939Z,1.80
2023-09-19T20:24:14.469Z,2.47
2023-09-19T20:26:42.311Z,2.00
2023-09-19T20:29:18.522Z,1.83
2023-09-19T20:31:56.030Z,1.88
2023-09-19T20:34:33.536Z,1.80
2023-09-19T20:37:14.673Z,2.00
2023-09-19T20:39:48.477Z,2.10
2023-09-19T20:42:27.137Z,1.92
2023-09-19T20:44:57.132Z,2.03
2023-09-19T20:47:35.662Z,2.33
2023-09-19T20:50:06.349Z,1.92
2023-09-19T20:52:46.700Z,2.03
2023-09-19T20:55:17.160Z,2.08
2023-09-19T21:00:21.986Z,2.10
2023-09-19T21:03:00.709Z,2.00
2023-09-19T21:05:28.702Z,1.75
2023-09-19T21:08:08.520Z,2.10
2023-09-19T21:10:43.464Z,1.80
2023-09-19T21:13:35.075Z,1.98
2023-09-19T21:16:12.662Z,1.88
2023-09-19T21:18:50.807Z,2.10
2023-09-19T21:21:25.352Z,2.25
2023-09-19T21:24:00.486Z,1.90
2023-09-19T21:26:31.631Z,1.85
2023-09-19T21:29:05.444Z,1.95
2023-09-19T21:31:37.243Z,1.92
2023-09-19T21:34:13.473Z,1.95
2023-09-19T21:36:41.707Z,2.20
2023-09-19T21:39:19.317Z,2.13
2023-09-19T21:41:50.046Z,2.30
2023-09-19T21:44:31.529Z,1.90
2023-09-19T21:47:00.351Z,1.80
2023-09-19T21:49:34.380Z,2.00
2023-09-19T21:52:11.107Z,1.90
2023-09-19T21:54:45.656Z,1.98
2023-09-19T21:57:13.460Z,1.85
2023-09-19T21:59:52.612Z,1.75
2023-09-19T22:02:29.257Z,2.40
2023-09-19T22:05:05.160Z,2.38
2023-09-19T22:07:39.763Z,2.38
2023-09-19T22:10:14.661Z,2.20
2023-09-19T22:12:49.620Z,2.13
2023-09-19T22:15:25.078Z,2.38
2023-09-19T22:18:04.719Z,2.20
2023-09-19T22:20:32.804Z,1.70
2023-09-19T22:23:15.060Z,1.90
2023-09-19T22:25:43.482Z,2.08
2023-09-19T22:28:23.660Z,2.63
2023-09-19T22:30:51.342Z,4.72
2023-09-19T22:33:25.534Z,2.13
2023-09-19T22:36:05.774Z,2.47
2023-09-19T22:38:38.751Z,2.20
2023-09-19T22:41:21.059Z,2.17
2023-09-19T22:43:59.798Z,2.20
2023-09-19T22:46:30.470Z,1.83
2023-09-19T22:51:54.635Z,2.30
2023-09-19T22:54:36.616Z,1.95
2023-09-19T22:57:06.751Z,1.95
2023-09-19T22:59:44.102Z,1.80
2023-09-19T23:02:15.484Z,2.20
2023-09-19T23:04:54.667Z,2.15
2023-09-19T23:07:37.331Z,2.00
2023-09-19T23:10:16.528Z,2.10
2023-09-19T23:12:50.766Z,2.03
2023-09-19T23:15:38.629Z,2.08
2023-09-19T23:18:19.721Z,2.30
2023-09-19T23:20:47.566Z,2.10
2023-09-19T23:23:26.243Z,2.42
2023-09-19T23:26:15.892Z,2.20
2023-09-19T23:28:49.649Z,2.25
2023-09-19T23:31:23.767Z,1.98
2023-09-19T23:33:54.722Z,2.03
2023-09-19T23:36:32.774Z,2.05
2023-09-19T23:39:00.760Z,3.00
2023-09-19T23:41:32.266Z,2.33
2023-09-19T23:44:06.617Z,2.30
2023-09-19T23:46:41.456Z,2.40
2023-09-19T23:49:18.534Z,2.50
2023-09-19T23:51:52.433Z,2.00
2023-09-19T23:54:29.241Z,2.08
2023-09-19T23:57:03.657Z,2.28
2023-09-19T23:59:40.756Z,2.10
